sensor_id;sensor_type;location;lat;lon;timestamp;P1;durP1;ratioP1;P2;durP2;ratioP2
16387;SDS011;8303;53.446;9.988;2022-07-29T04:46:18;6.47;;;3.57;;
16387;SDS011;8303;53.446;9.988;2022-07-29T04:48:45;6.77;;;3.90;;
16387;SDS011;8303;53.446;9.988;2022-07-29T04:51:12;8.50;;;3.93;;
16387;SDS011;8303;53.446;9.988;2022-07-29T04:53:39;6.37;;;3.53;;
16387;SDS011;8303;53.446;9.988;2022-07-29T04:56:06;7.03;;;3.87;;
16387;SDS011;8303;53.446;9.988;2022-07-29T04:58:33;10.90;;;4.07;;
16387;SDS011;8303;53.446;9.988;2022-07-29T05:01:01;5.70;;;3.90;;
16387;SDS011;8303;53.446;9.988;2022-07-29T05:03:29;6.33;;;4.43;;
16387;SDS011;8303;53.446;9.988;2022-07-29T05:05:56;6.63;;;4.20;;
16387;SDS011;8303;53.446;9.988;2022-07-29T05:08:23;7.70;;;3.83;;
16387;SDS011;8303;53.446;9.988;2022-07-29T05:10:50;8.97;;;3.97;;
16387;SDS011;8303;53.446;9.988;2022-07-29T05:13:17;5.53;;;4.60;;
16387;SDS011;8303;53.446;9.988;2022-07-29T05:15:43;8.30;;;4.50;;
16387;SDS011;8303;53.446;9.988;2022-07-29T05:18:10;5.80;;;4.23;;
16387;SDS011;8303;53.446;9.988;2022-07-29T05:20:38;7.30;;;4.37;;
16387;SDS011;8303;53.446;9.988;2022-07-29T05:23:05;5.87;;;4.00;;
16387;SDS011;8303;53.446;9.988;2022-07-29T05:25:32;5.77;;;3.90;;
16387;SDS011;8303;53.446;9.988;2022-07-29T05:27:59;6.60;;;3.87;;
16387;SDS011;8303;53.446;9.988;2022-07-29T05:30:26;4.33;;;3.73;;
16387;SDS011;8303;53.446;9.988;2022-07-29T05:32:53;9.77;;;4.43;;
16387;SDS011;8303;53.446;9.988;2022-07-29T05:35:20;6.07;;;4.40;;
16387;SDS011;8303;53.446;9.988;2022-07-29T05:37:48;5.17;;;3.80;;
16387;SDS011;8303;53.446;9.988;2022-07-29T05:40:15;5.87;;;4.37;;
16387;SDS011;8303;53.446;9.988;2022-07-29T05:42:42;6.40;;;4.17;;
16387;SDS011;8303;53.446;9.988;2022-07-29T05:45:09;6.77;;;4.17;;
16387;SDS011;8303;53.446;9.988;2022-07-29T05:47:36;5.33;;;4.03;;
16387;SDS011;8303;53.446;9.988;2022-07-29T05:50:03;7.10;;;4.73;;
16387;SDS011;8303;53.446;9.988;2022-07-29T05:52:31;8.57;;;4.20;;
16387;SDS011;8303;53.446;9.988;2022-07-29T05:54:59;6.20;;;4.57;;
16387;SDS011;8303;53.446;9.988;2022-07-29T05:57:29;8.30;;;4.43;;
16387;SDS011;8303;53.446;9.988;2022-07-29T05:59:56;4.47;;;4.07;;
16387;SDS011;8303;53.446;9.988;2022-07-29T06:02:22;4.83;;;4.20;;
16387;SDS011;8303;53.446;9.988;2022-07-29T06:04:49;5.87;;;4.90;;
16387;SDS011;8303;53.446;9.988;2022-07-29T06:07:16;6.03;;;4.87;;
16387;SDS011;8303;53.446;9.988;2022-07-29T06:09:43;5.27;;;4.60;;
16387;SDS011;8303;53.446;9.988;2022-07-29T06:12:11;5.93;;;5.37;;
16387;SDS011;8303;53.446;9.988;2022-07-29T06:14:38;8.90;;;5.37;;
16387;SDS011;8303;53.446;9.988;2022-07-29T06:17:05;5.13;;;4.63;;
16387;SDS011;8303;53.446;9.988;2022-07-29T06:19:33;5.73;;;4.80;;
16387;SDS011;8303;53.446;9.988;2022-07-29T06:22:01;6.77;;;4.73;;
16387;SDS011;8303;53.446;9.988;2022-07-29T06:24:28;8.63;;;5.17;;
16387;SDS011;8303;53.446;9.988;2022-07-29T06:26:55;5.50;;;5.00;;
16387;SDS011;8303;53.446;9.988;2022-07-29T06:29:23;5.90;;;5.37;;
16387;SDS011;8303;53.446;9.988;2022-07-29T06:31:50;6.20;;;5.00;;
16387;SDS011;8303;53.446;9.988;2022-07-29T06:34:17;8.80;;;5.17;;
16387;SDS011;8303;53.446;9.988;2022-07-29T06:36:44;7.33;;;5.17;;
16387;SDS011;8303;53.446;9.988;2022-07-29T06:39:11;6.23;;;4.80;;
16387;SDS011;8303;53.446;9.988;2022-07-29T06:41:37;7.33;;;5.70;;
16387;SDS011;8303;53.446;9.988;2022-07-29T06:44:04;7.30;;;5.00;;
16387;SDS011;8303;53.446;9.988;2022-07-29T06:46:32;7.70;;;5.55;;
16387;SDS011;8303;53.446;9.988;2022-07-29T06:48:59;6.10;;;5.27;;
16387;SDS011;8303;53.446;9.988;2022-07-29T06:51:27;6.23;;;5.20;;
16387;SDS011;8303;53.446;9.988;2022-07-29T06:53:54;7.27;;;5.97;;
16387;SDS011;8303;53.446;9.988;2022-07-29T06:56:22;5.20;;;4.70;;
16387;SDS011;8303;53.446;9.988;2022-07-29T06:58:49;9.03;;;5.17;;
16387;SDS011;8303;53.446;9.988;2022-07-29T07:01:15;6.93;;;5.10;;
16387;SDS011;8303;53.446;9.988;2022-07-29T07:03:44;7.17;;;5.43;;
16387;SDS011;8303;53.446;9.988;2022-07-29T07:06:11;7.63;;;5.10;;
16387;SDS011;8303;53.446;9.988;2022-07-29T07:08:37;5.20;;;4.77;;
16387;SDS011;8303;53.446;9.988;2022-07-29T07:11:04;6.80;;;4.93;;
16387;SDS011;8303;53.446;9.988;2022-07-29T07:13:32;8.33;;;5.57;;
16387;SDS011;8303;53.446;9.988;2022-07-29T07:15:59;8.40;;;4.97;;
16387;SDS011;8303;53.446;9.988;2022-07-29T07:18:26;6.67;;;4.77;;
16387;SDS011;8303;53.446;9.988;2022-07-29T07:20:55;5.20;;;4.60;;
16387;SDS011;8303;53.446;9.988;2022-07-29T07:23:22;7.67;;;5.20;;
16387;SDS011;8303;53.446;9.988;2022-07-29T07:25:49;6.50;;;5.37;;
16387;SDS011;8303;53.446;9.988;2022-07-29T07:28:16;6.13;;;5.00;;
16387;SDS011;8303;53.446;9.988;2022-07-29T07:30:42;6.20;;;5.30;;
16387;SDS011;8303;53.446;9.988;2022-07-29T07:33:11;6.75;;;6.03;;
16387;SDS011;8303;53.446;9.988;2022-07-29T07:35:37;5.60;;;4.95;;
16387;SDS011;8303;53.446;9.988;2022-07-29T07:38:06;8.40;;;5.85;;
16387;SDS011;8303;53.446;9.988;2022-07-29T07:40:32;8.30;;;5.95;;
16387;SDS011;8303;53.446;9.988;2022-07-29T07:42:59;10.13;;;5.85;;
16387;SDS011;8303;53.446;9.988;2022-07-29T07:45:26;6.88;;;5.75;;
16387;SDS011;8303;53.446;9.988;2022-07-29T07:47:53;6.55;;;5.97;;
16387;SDS011;8303;53.446;9.988;2022-07-29T07:50:20;9.98;;;6.32;;
16387;SDS011;8303;53.446;9.988;2022-07-29T07:52:48;8.15;;;6.00;;
16387;SDS011;8303;53.446;9.988;2022-07-29T07:55:17;6.22;;;5.55;;
16387;SDS011;8303;53.446;9.988;2022-07-29T07:57:45;14.32;;;7.28;;
16387;SDS011;8303;53.446;9.988;2022-07-29T08:00:12;8.90;;;8.10;;
16387;SDS011;8303;53.446;9.988;2022-07-29T08:02:41;8.15;;;7.40;;
16387;SDS011;8303;53.446;9.988;2022-07-29T08:05:10;9.18;;;6.25;;
16387;SDS011;8303;53.446;9.988;2022-07-29T08:07:41;6.65;;;5.90;;
16387;SDS011;8303;53.446;9.988;2022-07-29T08:10:09;7.35;;;6.68;;
16387;SDS011;8303;53.446;9.988;2022-07-29T08:12:38;7.43;;;6.82;;
16387;SDS011;8303;53.446;9.988;2022-07-29T08:15:05;7.50;;;6.78;;
16387;SDS011;8303;53.446;9.988;2022-07-29T08:17:33;7.45;;;6.35;;
16387;SDS011;8303;53.446;9.988;2022-07-29T08:20:00;8.40;;;6.60;;
16387;SDS011;8303;53.446;9.988;2022-07-29T08:22:27;8.20;;;6.10;;
16387;SDS011;8303;53.446;9.988;2022-07-29T08:24:53;8.85;;;6.35;;
16387;SDS011;8303;53.446;9.988;2022-07-29T08:27:21;7.03;;;6.43;;
16387;SDS011;8303;53.446;9.988;2022-07-29T08:29:49;6.97;;;6.35;;
16387;SDS011;8303;53.446;9.988;2022-07-29T08:32:16;9.02;;;6.70;;
16387;SDS011;8303;53.446;9.988;2022-07-29T08:34:43;9.25;;;6.63;;
16387;SDS011;8303;53.446;9.988;2022-07-29T08:37:11;46.97;;;11.75;;
16387;SDS011;8303;53.446;9.988;2022-07-29T08:39:38;9.60;;;7.50;;
16387;SDS011;8303;53.446;9.988;2022-07-29T08:42:05;8.07;;;7.35;;
16387;SDS011;8303;53.446;9.988;2022-07-29T08:44:32;8.45;;;7.60;;
16387;SDS011;8303;53.446;9.988;2022-07-29T08:47:00;7.70;;;7.00;;
16387;SDS011;8303;53.446;9.988;2022-07-29T08:49:27;16.85;;;13.65;;
16387;SDS011;8303;53.446;9.988;2022-07-29T08:51:54;11.30;;;6.15;;
16387;SDS011;8303;53.446;9.988;2022-07-29T08:54:23;9.18;;;8.27;;
16387;SDS011;8303;53.446;9.988;2022-07-29T08:56:51;8.82;;;7.68;;
16387;SDS011;8303;53.446;9.988;2022-07-29T08:59:19;8.30;;;7.45;;
16387;SDS011;8303;53.446;9.988;2022-07-29T09:01:46;10.65;;;9.65;;
16387;SDS011;8303;53.446;9.988;2022-07-29T09:04:16;13.18;;;12.18;;
16387;SDS011;8303;53.446;9.988;2022-07-29T09:06:45;13.52;;;12.35;;
16387;SDS011;8303;53.446;9.988;2022-07-29T09:09:15;15.52;;;14.50;;
16387;SDS011;8303;53.446;9.988;2022-07-29T09:11:42;15.05;;;14.10;;
16387;SDS011;8303;53.446;9.988;2022-07-29T09:14:10;20.20;;;18.45;;
16387;SDS011;8303;53.446;9.988;2022-07-29T09:16:45;16.05;;;14.95;;
16387;SDS011;8303;53.446;9.988;2022-07-29T09:19:23;27.90;;;26.05;;
16387;SDS011;8303;53.446;9.988;2022-07-29T09:21:51;23.35;;;21.83;;
16387;SDS011;8303;53.446;9.988;2022-07-29T09:24:30;23.63;;;22.13;;
16387;SDS011;8303;53.446;9.988;2022-07-29T09:27:07;33.40;;;31.45;;
16387;SDS011;8303;53.446;9.988;2022-07-29T09:29:36;32.70;;;30.60;;
16387;SDS011;8303;53.446;9.988;2022-07-29T09:32:06;29.67;;;27.75;;
16387;SDS011;8303;53.446;9.988;2022-07-29T09:34:36;34.70;;;32.38;;
16387;SDS011;8303;53.446;9.988;2022-07-29T09:37:04;33.00;;;30.83;;
16387;SDS011;8303;53.446;9.988;2022-07-29T09:39:31;37.05;;;34.65;;
16387;SDS011;8303;53.446;9.988;2022-07-29T09:41:59;34.92;;;33.03;;
16387;SDS011;8303;53.446;9.988;2022-07-29T09:44:27;40.67;;;38.28;;
16387;SDS011;8303;53.446;9.988;2022-07-29T09:47:07;47.38;;;44.38;;
16387;SDS011;8303;53.446;9.988;2022-07-29T09:49:34;44.95;;;42.05;;
16387;SDS011;8303;53.446;9.988;2022-07-29T09:52:16;43.70;;;40.58;;
16387;SDS011;8303;53.446;9.988;2022-07-29T09:54:42;64.45;;;61.03;;
16387;SDS011;8303;53.446;9.988;2022-07-29T09:57:21;52.08;;;49.17;;
16387;SDS011;8303;53.446;9.988;2022-07-29T09:59:55;45.97;;;43.00;;
16387;SDS011;8303;53.446;9.988;2022-07-29T10:02:27;40.10;;;37.63;;
16387;SDS011;8303;53.446;9.988;2022-07-29T10:04:56;39.92;;;37.58;;
16387;SDS011;8303;53.446;9.988;2022-07-29T10:07:24;45.92;;;43.15;;
16387;SDS011;8303;53.446;9.988;2022-07-29T10:09:54;49.08;;;46.03;;
16387;SDS011;8303;53.446;9.988;2022-07-29T10:12:22;80.95;;;76.60;;
16387;SDS011;8303;53.446;9.988;2022-07-29T10:14:50;81.05;;;76.55;;
16387;SDS011;8303;53.446;9.988;2022-07-29T10:17:17;82.95;;;78.45;;
16387;SDS011;8303;53.446;9.988;2022-07-29T10:19:45;79.57;;;75.07;;
16387;SDS011;8303;53.446;9.988;2022-07-29T10:22:15;94.07;;;88.97;;
16387;SDS011;8303;53.446;9.988;2022-07-29T10:24:42;98.15;;;92.78;;
16387;SDS011;8303;53.446;9.988;2022-07-29T10:27:09;75.40;;;71.07;;
16387;SDS011;8303;53.446;9.988;2022-07-29T10:29:36;78.45;;;74.10;;
16387;SDS011;8303;53.446;9.988;2022-07-29T10:32:08;83.55;;;79.13;;
16387;SDS011;8303;53.446;9.988;2022-07-29T10:34:57;80.60;;;76.00;;
16387;SDS011;8303;53.446;9.988;2022-07-29T10:37:49;81.10;;;76.75;;
16387;SDS011;8303;53.446;9.988;2022-07-29T10:40:32;128.82;;;121.82;;
16387;SDS011;8303;53.446;9.988;2022-07-29T10:43:26;106.35;;;100.82;;
16387;SDS011;8303;53.446;9.988;2022-07-29T10:45:55;111.38;;;105.53;;
16387;SDS011;8303;53.446;9.988;2022-07-29T10:48:25;104.63;;;98.88;;
16387;SDS011;8303;53.446;9.988;2022-07-29T10:50:53;110.63;;;104.75;;
16387;SDS011;8303;53.446;9.988;2022-07-29T10:53:45;103.80;;;97.95;;
16387;SDS011;8303;53.446;9.988;2022-07-29T10:56:25;107.68;;;101.07;;
16387;SDS011;8303;53.446;9.988;2022-07-29T11:01:53;138.00;;;130.77;;
16387;SDS011;8303;53.446;9.988;2022-07-29T11:07:26;144.30;;;136.60;;
16387;SDS011;8303;53.446;9.988;2022-07-29T11:12:48;138.80;;;131.40;;
16387;SDS011;8303;53.446;9.988;2022-07-29T11:15:16;142.25;;;134.70;;
16387;SDS011;8303;53.446;9.988;2022-07-29T11:18:07;143.40;;;136.07;;
16387;SDS011;8303;53.446;9.988;2022-07-29T11:20:38;138.18;;;130.75;;
16387;SDS011;8303;53.446;9.988;2022-07-29T11:23:19;122.53;;;116.15;;
16387;SDS011;8303;53.446;9.988;2022-07-29T11:28:51;110.78;;;104.82;;
16387;SDS011;8303;53.446;9.988;2022-07-29T11:31:31;118.13;;;111.95;;
16387;SDS011;8303;53.446;9.988;2022-07-29T11:39:45;137.20;;;130.00;;
16387;SDS011;8303;53.446;9.988;2022-07-29T11:45:08;123.47;;;117.10;;
16387;SDS011;8303;53.446;9.988;2022-07-29T11:47:39;117.90;;;111.43;;
16387;SDS011;8303;53.446;9.988;2022-07-29T11:50:08;130.43;;;123.47;;
16387;SDS011;8303;53.446;9.988;2022-07-29T11:52:37;121.75;;;115.60;;
16387;SDS011;8303;53.446;9.988;2022-07-29T11:55:11;124.30;;;117.82;;
16387;SDS011;8303;53.446;9.988;2022-07-29T11:57:46;133.95;;;127.10;;
16387;SDS011;8303;53.446;9.988;2022-07-29T12:00:20;138.50;;;131.35;;
16387;SDS011;8303;53.446;9.988;2022-07-29T12:02:55;151.52;;;143.65;;
16387;SDS011;8303;53.446;9.988;2022-07-29T12:08:07;120.22;;;113.78;;
16387;SDS011;8303;53.446;9.988;2022-07-29T12:10:35;113.85;;;108.03;;
16387;SDS011;8303;53.446;9.988;2022-07-29T12:13:04;125.43;;;119.00;;
16387;SDS011;8303;53.446;9.988;2022-07-29T12:15:31;118.85;;;112.50;;
16387;SDS011;8303;53.446;9.988;2022-07-29T12:17:57;126.68;;;120.13;;
16387;SDS011;8303;53.446;9.988;2022-07-29T12:20:25;116.60;;;110.57;;
16387;SDS011;8303;53.446;9.988;2022-07-29T12:22:53;138.93;;;131.90;;
16387;SDS011;8303;53.446;9.988;2022-07-29T12:25:21;155.70;;;147.50;;
16387;SDS011;8303;53.446;9.988;2022-07-29T12:27:59;128.23;;;121.40;;
16387;SDS011;8303;53.446;9.988;2022-07-29T12:30:39;159.43;;;151.10;;
16387;SDS011;8303;53.446;9.988;2022-07-29T12:35:56;136.32;;;129.35;;
16387;SDS011;8303;53.446;9.988;2022-07-29T12:38:25;158.07;;;149.80;;
16387;SDS011;8303;53.446;9.988;2022-07-29T12:40:53;141.05;;;133.70;;
16387;SDS011;8303;53.446;9.988;2022-07-29T12:43:21;106.47;;;100.72;;
16387;SDS011;8303;53.446;9.988;2022-07-29T12:45:51;107.43;;;101.70;;
16387;SDS011;8303;53.446;9.988;2022-07-29T12:48:32;91.28;;;85.85;;
16387;SDS011;8303;53.446;9.988;2022-07-29T12:50:59;87.32;;;82.78;;
16387;SDS011;8303;53.446;9.988;2022-07-29T12:53:27;94.63;;;89.20;;
16387;SDS011;8303;53.446;9.988;2022-07-29T12:55:55;112.70;;;106.88;;
16387;SDS011;8303;53.446;9.988;2022-07-29T12:58:30;88.00;;;83.28;;
16387;SDS011;8303;53.446;9.988;2022-07-29T13:01:06;142.45;;;134.50;;
16387;SDS011;8303;53.446;9.988;2022-07-29T13:03:46;143.55;;;136.02;;
16387;SDS011;8303;53.446;9.988;2022-07-29T13:06:30;152.60;;;144.77;;
16387;SDS011;8303;53.446;9.988;2022-07-29T13:09:07;133.82;;;126.93;;
16387;SDS011;8303;53.446;9.988;2022-07-29T13:11:37;102.03;;;96.53;;
16387;SDS011;8303;53.446;9.988;2022-07-29T13:14:06;116.78;;;110.15;;
16387;SDS011;8303;53.446;9.988;2022-07-29T13:16:35;135.13;;;128.05;;
16387;SDS011;8303;53.446;9.988;2022-07-29T13:19:03;137.30;;;129.93;;
16387;SDS011;8303;53.446;9.988;2022-07-29T13:21:35;108.82;;;102.97;;
16387;SDS011;8303;53.446;9.988;2022-07-29T13:24:04;147.15;;;139.32;;
16387;SDS011;8303;53.446;9.988;2022-07-29T13:26:34;123.20;;;116.97;;
16387;SDS011;8303;53.446;9.988;2022-07-29T13:29:05;153.27;;;145.23;;
16387;SDS011;8303;53.446;9.988;2022-07-29T13:31:32;166.20;;;157.68;;
16387;SDS011;8303;53.446;9.988;2022-07-29T13:34:00;171.85;;;163.05;;
16387;SDS011;8303;53.446;9.988;2022-07-29T13:36:28;139.32;;;132.25;;
16387;SDS011;8303;53.446;9.988;2022-07-29T13:38:55;156.02;;;147.55;;
16387;SDS011;8303;53.446;9.988;2022-07-29T13:41:22;126.90;;;120.47;;
16387;SDS011;8303;53.446;9.988;2022-07-29T13:43:49;97.00;;;91.85;;
16387;SDS011;8303;53.446;9.988;2022-07-29T13:46:16;104.90;;;99.63;;
16387;SDS011;8303;53.446;9.988;2022-07-29T13:48:45;84.97;;;80.28;;
16387;SDS011;8303;53.446;9.988;2022-07-29T13:51:13;84.32;;;79.85;;
16387;SDS011;8303;53.446;9.988;2022-07-29T13:53:40;60.40;;;56.90;;
16387;SDS011;8303;53.446;9.988;2022-07-29T13:56:07;42.65;;;40.30;;
16387;SDS011;8303;53.446;9.988;2022-07-29T13:58:34;35.40;;;33.30;;
16387;SDS011;8303;53.446;9.988;2022-07-29T14:01:01;18.73;;;17.42;;
16387;SDS011;8303;53.446;9.988;2022-07-29T14:03:28;14.20;;;13.05;;
16387;SDS011;8303;53.446;9.988;2022-07-29T14:05:56;13.85;;;13.05;;
16387;SDS011;8303;53.446;9.988;2022-07-29T14:08:26;17.02;;;15.93;;
16387;SDS011;8303;53.446;9.988;2022-07-29T14:10:53;17.70;;;16.35;;
16387;SDS011;8303;53.446;9.988;2022-07-29T14:13:19;21.08;;;19.75;;
16387;SDS011;8303;53.446;9.988;2022-07-29T14:15:46;18.05;;;16.95;;
16387;SDS011;8303;53.446;9.988;2022-07-29T14:18:13;19.30;;;18.02;;
16387;SDS011;8303;53.446;9.988;2022-07-29T14:20:40;19.45;;;17.90;;
16387;SDS011;8303;53.446;9.988;2022-07-29T14:23:07;18.45;;;17.30;;
16387;SDS011;8303;53.446;9.988;2022-07-29T14:25:35;19.50;;;18.33;;
16387;SDS011;8303;53.446;9.988;2022-07-29T14:28:02;13.43;;;12.43;;
16387;SDS011;8303;53.446;9.988;2022-07-29T14:30:29;14.30;;;13.00;;
16387;SDS011;8303;53.446;9.988;2022-07-29T14:32:56;21.35;;;19.58;;
16387;SDS011;8303;53.446;9.988;2022-07-29T14:35:23;71.03;;;66.78;;
16387;SDS011;8303;53.446;9.988;2022-07-29T14:37:50;252.27;;;238.32;;
16387;SDS011;8303;53.446;9.988;2022-07-29T14:40:16;142.30;;;134.95;;
16387;SDS011;8303;53.446;9.988;2022-07-29T14:42:45;161.02;;;152.63;;
16387;SDS011;8303;53.446;9.988;2022-07-29T14:45:12;161.80;;;153.25;;
16387;SDS011;8303;53.446;9.988;2022-07-29T14:47:39;168.02;;;159.50;;
16387;SDS011;8303;53.446;9.988;2022-07-29T14:50:06;165.52;;;157.05;;
16387;SDS011;8303;53.446;9.988;2022-07-29T14:52:34;150.98;;;143.02;;
16387;SDS011;8303;53.446;9.988;2022-07-29T14:55:01;160.02;;;151.75;;
16387;SDS011;8303;53.446;9.988;2022-07-29T14:57:28;170.93;;;162.15;;
16387;SDS011;8303;53.446;9.988;2022-07-29T14:59:57;151.65;;;143.07;;
16387;SDS011;8303;53.446;9.988;2022-07-29T15:02:24;199.38;;;188.93;;
16387;SDS011;8303;53.446;9.988;2022-07-29T15:04:51;296.13;;;279.20;;
16387;SDS011;8303;53.446;9.988;2022-07-29T15:07:17;180.43;;;171.07;;
16387;SDS011;8303;53.446;9.988;2022-07-29T15:09:44;180.23;;;169.35;;
16387;SDS011;8303;53.446;9.988;2022-07-29T15:12:11;205.27;;;194.85;;
16387;SDS011;8303;53.446;9.988;2022-07-29T15:14:38;201.32;;;189.82;;
16387;SDS011;8303;53.446;9.988;2022-07-29T15:17:06;202.70;;;191.95;;
16387;SDS011;8303;53.446;9.988;2022-07-29T15:19:33;164.80;;;156.35;;
16387;SDS011;8303;53.446;9.988;2022-07-29T15:22:00;148.63;;;140.52;;
16387;SDS011;8303;53.446;9.988;2022-07-29T15:24:29;164.52;;;155.43;;
16387;SDS011;8303;53.446;9.988;2022-07-29T15:26:56;129.60;;;122.90;;
16387;SDS011;8303;53.446;9.988;2022-07-29T15:29:23;155.57;;;146.85;;
16387;SDS011;8303;53.446;9.988;2022-07-29T15:31:50;145.98;;;138.38;;
16387;SDS011;8303;53.446;9.988;2022-07-29T15:34:19;130.93;;;124.03;;
16387;SDS011;8303;53.446;9.988;2022-07-29T15:36:48;132.55;;;125.28;;
16387;SDS011;8303;53.446;9.988;2022-07-29T15:39:15;137.25;;;130.13;;
16387;SDS011;8303;53.446;9.988;2022-07-29T15:41:42;181.32;;;171.93;;
16387;SDS011;8303;53.446;9.988;2022-07-29T15:44:09;209.57;;;198.02;;
16387;SDS011;8303;53.446;9.988;2022-07-29T15:46:36;182.90;;;173.65;;
16387;SDS011;8303;53.446;9.988;2022-07-29T15:49:21;185.38;;;175.60;;
16387;SDS011;8303;53.446;9.988;2022-07-29T15:51:48;198.35;;;187.77;;
16387;SDS011;8303;53.446;9.988;2022-07-29T15:54:15;179.40;;;169.93;;
16387;SDS011;8303;53.446;9.988;2022-07-29T15:56:42;224.95;;;213.45;;
16387;SDS011;8303;53.446;9.988;2022-07-29T15:59:09;175.90;;;166.13;;
16387;SDS011;8303;53.446;9.988;2022-07-29T16:01:36;175.20;;;165.88;;
16387;SDS011;8303;53.446;9.988;2022-07-29T16:04:03;154.25;;;146.15;;
16387;SDS011;8303;53.446;9.988;2022-07-29T16:06:31;168.05;;;158.82;;
16387;SDS011;8303;53.446;9.988;2022-07-29T16:08:58;190.90;;;180.77;;
16387;SDS011;8303;53.446;9.988;2022-07-29T16:11:24;211.02;;;200.43;;
16387;SDS011;8303;53.446;9.988;2022-07-29T16:13:51;184.57;;;174.65;;
16387;SDS011;8303;53.446;9.988;2022-07-29T16:16:18;167.65;;;159.02;;
16387;SDS011;8303;53.446;9.988;2022-07-29T16:18:45;184.07;;;173.93;;
16387;SDS011;8303;53.446;9.988;2022-07-29T16:21:12;169.40;;;159.98;;
16387;SDS011;8303;53.446;9.988;2022-07-29T16:23:41;175.38;;;165.48;;
16387;SDS011;8303;53.446;9.988;2022-07-29T16:26:07;146.70;;;139.18;;
16387;SDS011;8303;53.446;9.988;2022-07-29T16:28:34;152.23;;;144.25;;
16387;SDS011;8303;53.446;9.988;2022-07-29T16:31:01;155.75;;;147.50;;
16387;SDS011;8303;53.446;9.988;2022-07-29T16:33:28;133.45;;;126.25;;
16387;SDS011;8303;53.446;9.988;2022-07-29T16:35:55;137.50;;;130.10;;
16387;SDS011;8303;53.446;9.988;2022-07-29T16:38:22;146.43;;;138.73;;
16387;SDS011;8303;53.446;9.988;2022-07-29T16:40:50;127.03;;;120.38;;
16387;SDS011;8303;53.446;9.988;2022-07-29T16:43:17;142.13;;;134.38;;
16387;SDS011;8303;53.446;9.988;2022-07-29T16:45:44;150.30;;;142.63;;
16387;SDS011;8303;53.446;9.988;2022-07-29T16:48:12;139.68;;;132.35;;
16387;SDS011;8303;53.446;9.988;2022-07-29T16:50:39;138.38;;;131.07;;
16387;SDS011;8303;53.446;9.988;2022-07-29T16:53:06;149.55;;;141.63;;
16387;SDS011;8303;53.446;9.988;2022-07-29T16:55:33;141.85;;;134.32;;
16387;SDS011;8303;53.446;9.988;2022-07-29T16:58:01;154.93;;;146.82;;
16387;SDS011;8303;53.446;9.988;2022-07-29T17:00:28;149.25;;;141.70;;
16387;SDS011;8303;53.446;9.988;2022-07-29T17:02:55;142.88;;;135.27;;
16387;SDS011;8303;53.446;9.988;2022-07-29T17:05:21;146.25;;;138.68;;
16387;SDS011;8303;53.446;9.988;2022-07-29T17:07:48;165.00;;;156.05;;
16387;SDS011;8303;53.446;9.988;2022-07-29T17:10:15;150.77;;;142.80;;
16387;SDS011;8303;53.446;9.988;2022-07-29T17:12:42;182.55;;;172.27;;
16387;SDS011;8303;53.446;9.988;2022-07-29T17:15:11;216.85;;;204.70;;
16387;SDS011;8303;53.446;9.988;2022-07-29T17:17:40;203.95;;;191.48;;
16387;SDS011;8303;53.446;9.988;2022-07-29T17:20:07;217.68;;;206.18;;
16387;SDS011;8303;53.446;9.988;2022-07-29T17:22:35;179.25;;;169.95;;
16387;SDS011;8303;53.446;9.988;2022-07-29T17:25:02;221.52;;;210.10;;
16387;SDS011;8303;53.446;9.988;2022-07-29T17:27:30;210.88;;;199.32;;
16387;SDS011;8303;53.446;9.988;2022-07-29T17:29:57;152.75;;;144.88;;
16387;SDS011;8303;53.446;9.988;2022-07-29T17:32:25;162.15;;;153.60;;
16387;SDS011;8303;53.446;9.988;2022-07-29T17:34:52;149.48;;;141.45;;
16387;SDS011;8303;53.446;9.988;2022-07-29T17:37:19;100.05;;;94.82;;
16387;SDS011;8303;53.446;9.988;2022-07-29T17:39:46;87.30;;;82.45;;
16387;SDS011;8303;53.446;9.988;2022-07-29T17:42:13;92.53;;;87.20;;
16387;SDS011;8303;53.446;9.988;2022-07-29T17:44:40;87.80;;;82.82;;
16387;SDS011;8303;53.446;9.988;2022-07-29T17:47:07;91.03;;;86.25;;
16387;SDS011;8303;53.446;9.988;2022-07-29T17:49:36;85.72;;;80.85;;
16387;SDS011;8303;53.446;9.988;2022-07-29T17:52:03;101.68;;;95.78;;
16387;SDS011;8303;53.446;9.988;2022-07-29T17:54:30;90.22;;;85.35;;
16387;SDS011;8303;53.446;9.988;2022-07-29T17:56:57;78.10;;;73.78;;
16387;SDS011;8303;53.446;9.988;2022-07-29T17:59:24;66.07;;;62.17;;
16387;SDS011;8303;53.446;9.988;2022-07-29T18:01:51;70.45;;;66.28;;
16387;SDS011;8303;53.446;9.988;2022-07-29T18:04:18;73.00;;;68.85;;
16387;SDS011;8303;53.446;9.988;2022-07-29T18:06:48;66.38;;;62.42;;
16387;SDS011;8303;53.446;9.988;2022-07-29T18:09:15;61.78;;;58.22;;
16387;SDS011;8303;53.446;9.988;2022-07-29T18:11:42;70.30;;;66.30;;
16387;SDS011;8303;53.446;9.988;2022-07-29T18:14:10;61.50;;;57.50;;
16387;SDS011;8303;53.446;9.988;2022-07-29T18:16:37;64.13;;;60.42;;
16387;SDS011;8303;53.446;9.988;2022-07-29T18:19:04;62.22;;;58.20;;
16387;SDS011;8303;53.446;9.988;2022-07-29T18:21:31;49.80;;;46.25;;
16387;SDS011;8303;53.446;9.988;2022-07-29T18:24:00;58.40;;;55.15;;
16387;SDS011;8303;53.446;9.988;2022-07-29T18:26:27;44.00;;;41.05;;
16387;SDS011;8303;53.446;9.988;2022-07-29T18:28:54;42.10;;;39.35;;
16387;SDS011;8303;53.446;9.988;2022-07-29T18:31:21;35.05;;;33.00;;
16387;SDS011;8303;53.446;9.988;2022-07-29T18:33:48;28.42;;;26.50;;
16387;SDS011;8303;53.446;9.988;2022-07-29T18:36:14;35.70;;;33.45;;
16387;SDS011;8303;53.446;9.988;2022-07-29T18:38:42;33.78;;;31.38;;
16387;SDS011;8303;53.446;9.988;2022-07-29T18:41:10;21.55;;;20.02;;
16387;SDS011;8303;53.446;9.988;2022-07-29T18:43:37;25.88;;;23.73;;
16387;SDS011;8303;53.446;9.988;2022-07-29T18:46:03;29.77;;;27.63;;
16387;SDS011;8303;53.446;9.988;2022-07-29T18:48:30;26.45;;;24.70;;
16387;SDS011;8303;53.446;9.988;2022-07-29T18:50:57;24.63;;;22.92;;
16387;SDS011;8303;53.446;9.988;2022-07-29T18:53:25;23.50;;;21.67;;
16387;SDS011;8303;53.446;9.988;2022-07-29T18:55:51;23.27;;;21.48;;
16387;SDS011;8303;53.446;9.988;2022-07-29T18:58:20;19.27;;;17.58;;
16387;SDS011;8303;53.446;9.988;2022-07-29T19:00:47;19.45;;;17.60;;
16387;SDS011;8303;53.446;9.988;2022-07-29T19:03:14;18.17;;;16.98;;
16387;SDS011;8303;53.446;9.988;2022-07-29T19:05:40;14.32;;;13.32;;
16387;SDS011;8303;53.446;9.988;2022-07-29T19:08:07;16.40;;;14.45;;
16387;SDS011;8303;53.446;9.988;2022-07-29T19:10:34;14.15;;;13.05;;
16387;SDS011;8303;53.446;9.988;2022-07-29T19:13:01;12.48;;;10.32;;
16387;SDS011;8303;53.446;9.988;2022-07-29T19:15:29;12.80;;;11.63;;
16387;SDS011;8303;53.446;9.988;2022-07-29T19:17:57;10.43;;;9.48;;
16387;SDS011;8303;53.446;9.988;2022-07-29T19:20:23;11.13;;;10.02;;
16387;SDS011;8303;53.446;9.988;2022-07-29T19:22:50;10.05;;;9.25;;
16387;SDS011;8303;53.446;9.988;2022-07-29T19:25:17;13.23;;;10.18;;
16387;SDS011;8303;53.446;9.988;2022-07-29T19:27:44;9.38;;;8.48;;
16387;SDS011;8303;53.446;9.988;2022-07-29T19:30:11;11.32;;;9.25;;
16387;SDS011;8303;53.446;9.988;2022-07-29T19:32:39;15.40;;;9.27;;
16387;SDS011;8303;53.446;9.988;2022-07-29T19:35:06;10.65;;;8.75;;
16387;SDS011;8303;53.446;9.988;2022-07-29T19:37:49;10.07;;;8.93;;
16387;SDS011;8303;53.446;9.988;2022-07-29T19:40:16;9.23;;;8.18;;
16387;SDS011;8303;53.446;9.988;2022-07-29T19:42:43;13.25;;;8.93;;
16387;SDS011;8303;53.446;9.988;2022-07-29T19:45:10;9.57;;;8.68;;
16387;SDS011;8303;53.446;9.988;2022-07-29T19:47:37;9.73;;;8.93;;
16387;SDS011;8303;53.446;9.988;2022-07-29T19:50:06;9.50;;;8.30;;
16387;SDS011;8303;53.446;9.988;2022-07-29T19:52:34;11.95;;;8.82;;